sensor_id;sensor_type;location;lat;lon;timestamp;pressure;altitude;pressure_sealevel;temperature;humidity
33280;BME280;20403;43.114;12.434;2023-02-13T00:01:02;100883.16;;;5.15;100.00
33280;BME280;20403;43.114;12.434;2023-02-13T00:03:28;100871.72;;;5.08;100.00
33280;BME280;20403;43.114;12.434;2023-02-13T00:05:53;100881.41;;;4.96;100.00
33280;BME280;20403;43.114;12.434;2023-02-13T00:08:19;100870.81;;;4.90;100.00
33280;BME280;20403;43.114;12.434;2023-02-13T00:10:46;100876.78;;;5.37;100.00
33280;BME280;20403;43.114;12.434;2023-02-13T00:13:11;100873.06;;;5.67;100.00
33280;BME280;20403;43.114;12.434;2023-02-13T00:15:37;100881.81;;;5.94;100.00
33280;BME280;20403;43.114;12.434;2023-02-13T00:18:03;100884.03;;;5.79;100.00
33280;BME280;20403;43.114;12.434;2023-02-13T00:20:28;100885.16;;;5.77;100.00
33280;BME280;20403;43.114;12.434;2023-02-13T00:22:53;100885.53;;;5.54;100.00
33280;BME280;20403;43.114;12.434;2023-02-13T00:25:19;100887.75;;;5.49;100.00
33280;BME280;20403;43.114;12.434;2023-02-13T00:27:44;100894.88;;;5.37;100.00
33280;BME280;20403;43.114;12.434;2023-02-13T00:30:10;100892.66;;;5.24;100.00
33280;BME280;20403;43.114;12.434;2023-02-13T00:32:36;100896.72;;;5.27;100.00
33280;BME280;20403;43.114;12.434;2023-02-13T00:35:01;100887.22;;;5.18;100.00
33280;BME280;20403;43.114;12.434;2023-02-13T00:37:26;100886.28;;;5.09;100.00
33280;BME280;20403;43.114;12.434;2023-02-13T00:39:52;100893.66;;;4.94;100.00
33280;BME280;20403;43.114;12.434;2023-02-13T00:42:18;100893.16;;;4.91;100.00
33280;BME280;20403;43.114;12.434;2023-02-13T00:44:44;100896.97;;;4.87;100.00
33280;BME280;20403;43.114;12.434;2023-02-13T00:47:09;100894.94;;;4.80;100.00
33280;BME280;20403;43.114;12.434;2023-02-13T00:49:38;100895.75;;;4.81;100.00
33280;BME280;20403;43.114;12.434;2023-02-13T00:52:04;100901.91;;;4.70;100.00
33280;BME280;20403;43.114;12.434;2023-02-13T00:54:29;100893.19;;;4.81;100.00
33280;BME280;20403;43.114;12.434;2023-02-13T00:56:54;100892.34;;;4.80;100.00
33280;BME280;20403;43.114;12.434;2023-02-13T00:59:20;100893.19;;;4.71;100.00
33280;BME280;20403;43.114;12.434;2023-02-13T01:01:45;100899.72;;;4.75;100.00
33280;BME280;20403;43.114;12.434;2023-02-13T01:04:10;100894.34;;;4.96;100.00
33280;BME280;20403;43.114;12.434;2023-02-13T01:06:36;100886.84;;;5.03;100.00
33280;BME280;20403;43.114;12.434;2023-02-13T01:09:02;100882.59;;;5.12;100.00
33280;BME280;20403;43.114;12.434;2023-02-13T01:11:28;100888.28;;;5.25;100.00
33280;BME280;20403;43.114;12.434;2023-02-13T01:13:53;100891.00;;;5.23;100.00
33280;BME280;20403;43.114;12.434;2023-02-13T01:16:18;100877.94;;;5.25;100.00
33280;BME280;20403;43.114;12.434;2023-02-13T01:18:44;100881.84;;;5.29;100.00
33280;BME280;20403;43.114;12.434;2023-02-13T01:21:15;100881.34;;;5.53;100.00
33280;BME280;20403;43.114;12.434;2023-02-13T01:23:41;100894.56;;;5.78;100.00
33280;BME280;20403;43.114;12.434;2023-02-13T01:26:08;100890.69;;;5.82;100.00
33280;BME280;20403;43.114;12.434;2023-02-13T01:28:35;100892.34;;;5.83;100.00
33280;BME280;20403;43.114;12.434;2023-02-13T01:31:00;100901.34;;;5.79;100.00
33280;BME280;20403;43.114;12.434;2023-02-13T01:33:27;100889.56;;;5.66;100.00
33280;BME280;20403;43.114;12.434;2023-02-13T01:35:53;100896.84;;;5.81;100.00
33280;BME280;20403;43.114;12.434;2023-02-13T01:38:18;100900.09;;;5.83;100.00
33280;BME280;20403;43.114;12.434;2023-02-13T01:40:48;100901.44;;;5.87;100.00
33280;BME280;20403;43.114;12.434;2023-02-13T01:43:14;100903.31;;;5.95;100.00
33280;BME280;20403;43.114;12.434;2023-02-13T01:45:40;100911.94;;;5.85;100.00
33280;BME280;20403;43.114;12.434;2023-02-13T01:48:27;100921.50;;;5.85;100.00
33280;BME280;20403;43.114;12.434;2023-02-13T01:51:01;100926.75;;;5.65;100.00
33280;BME280;20403;43.114;12.434;2023-02-13T01:53:30;100918.38;;;5.54;100.00
33280;BME280;20403;43.114;12.434;2023-02-13T01:56:02;100922.00;;;5.33;100.00
33280;BME280;20403;43.114;12.434;2023-02-13T01:58:33;100920.28;;;5.14;100.00
33280;BME280;20403;43.114;12.434;2023-02-13T02:01:00;100920.06;;;4.98;100.00
33280;BME280;20403;43.114;12.434;2023-02-13T02:06:01;100915.34;;;4.83;100.00
33280;BME280;20403;43.114;12.434;2023-02-13T02:08:28;100921.31;;;4.84;100.00
33280;BME280;20403;43.114;12.434;2023-02-13T02:10:55;100916.44;;;4.61;100.00
33280;BME280;20403;43.114;12.434;2023-02-13T02:13:22;100912.53;;;4.67;100.00
33280;BME280;20403;43.114;12.434;2023-02-13T02:15:48;100915.94;;;4.58;100.00
33280;BME280;20403;43.114;12.434;2023-02-13T02:18:19;100909.78;;;4.59;100.00
33280;BME280;20403;43.114;12.434;2023-02-13T02:21:21;100913.31;;;4.68;100.00
33280;BME280;20403;43.114;12.434;2023-02-13T02:24:15;100912.25;;;4.60;100.00
33280;BME280;20403;43.114;12.434;2023-02-13T02:30:40;100906.94;;;4.72;100.00
33280;BME280;20403;43.114;12.434;2023-02-13T02:49:58;100916.59;;;5.54;100.00
33280;BME280;20403;43.114;12.434;2023-02-13T02:52:45;100914.63;;;5.38;100.00
33280;BME280;20403;43.114;12.434;2023-02-13T02:55:37;100919.69;;;5.30;100.00
33280;BME280;20403;43.114;12.434;2023-02-13T03:00:54;100910.56;;;4.89;100.00
33280;BME280;20403;43.114;12.434;2023-02-13T03:03:38;100913.69;;;4.82;100.00
33280;BME280;20403;43.114;12.434;2023-02-13T03:06:28;100922.41;;;4.81;100.00
33280;BME280;20403;43.114;12.434;2023-02-13T03:08:58;100909.38;;;4.73;100.00
33280;BME280;20403;43.114;12.434;2023-02-13T03:11:48;100909.53;;;4.72;100.00
33280;BME280;20403;43.114;12.434;2023-02-13T03:14:32;100909.94;;;4.67;100.00
33280;BME280;20403;43.114;12.434;2023-02-13T03:16:58;100920.66;;;4.72;100.00
33280;BME280;20403;43.114;12.434;2023-02-13T03:20:03;100915.88;;;4.77;100.00
33280;BME280;20403;43.114;12.434;2023-02-13T03:23:06;100906.22;;;4.89;100.00
33280;BME280;20403;43.114;12.434;2023-02-13T03:25:57;100912.31;;;4.98;100.00
33280;BME280;20403;43.114;12.434;2023-02-13T03:34:41;100911.75;;;5.04;100.00
33280;BME280;20403;43.114;12.434;2023-02-13T03:37:34;100914.47;;;5.02;100.00
33280;BME280;20403;43.114;12.434;2023-02-13T03:40:47;100923.47;;;4.98;100.00
33280;BME280;20403;43.114;12.434;2023-02-13T03:43:41;100925.78;;;4.92;100.00
33280;BME280;20403;43.114;12.434;2023-02-13T03:46:10;100929.38;;;4.81;100.00
33280;BME280;20403;43.114;12.434;2023-02-13T03:48:38;100938.22;;;4.59;100.00
33280;BME280;20403;43.114;12.434;2023-02-13T03:51:31;100941.75;;;4.38;100.00
33280;BME280;20403;43.114;12.434;2023-02-13T03:54:00;100940.13;;;4.37;100.00
33280;BME280;20403;43.114;12.434;2023-02-13T03:56:30;100939.28;;;4.27;100.00
33280;BME280;20403;43.114;12.434;2023-02-13T03:59:22;100945.13;;;4.29;100.00
33280;BME280;20403;43.114;12.434;2023-02-13T04:02:15;100949.88;;;4.05;100.00
33280;BME280;20403;43.114;12.434;2023-02-13T04:04:47;100950.63;;;3.86;100.00
33280;BME280;20403;43.114;12.434;2023-02-13T04:07:17;100949.97;;;3.84;100.00
33280;BME280;20403;43.114;12.434;2023-02-13T04:10:04;100947.94;;;3.87;100.00
33280;BME280;20403;43.114;12.434;2023-02-13T04:18:15;100944.53;;;3.77;100.00
33280;BME280;20403;43.114;12.434;2023-02-13T04:20:42;100938.34;;;3.58;100.00
33280;BME280;20403;43.114;12.434;2023-02-13T04:23:09;100936.06;;;3.65;100.00
33280;BME280;20403;43.114;12.434;2023-02-13T04:25:38;100939.13;;;3.49;100.00
33280;BME280;20403;43.114;12.434;2023-02-13T04:28:04;100936.69;;;3.57;100.00
33280;BME280;20403;43.114;12.434;2023-02-13T04:30:29;100942.94;;;3.55;100.00
33280;BME280;20403;43.114;12.434;2023-02-13T04:32:54;100940.19;;;3.16;100.00
33280;BME280;20403;43.114;12.434;2023-02-13T04:35:20;100950.06;;;3.11;100.00
33280;BME280;20403;43.114;12.434;2023-02-13T04:37:45;100953.59;;;3.10;100.00
33280;BME280;20403;43.114;12.434;2023-02-13T04:40:11;100957.63;;;3.03;100.00
33280;BME280;20403;43.114;12.434;2023-02-13T04:42:36;100958.25;;;2.95;100.00
33280;BME280;20403;43.114;12.434;2023-02-13T04:45:02;100955.28;;;3.00;100.00
33280;BME280;20403;43.114;12.434;2023-02-13T04:47:27;100959.63;;;2.99;100.00
33280;BME280;20403;43.114;12.434;2023-02-13T04:49:53;100958.94;;;2.97;100.00
33280;BME280;20403;43.114;12.434;2023-02-13T04:52:18;100963.13;;;2.77;100.00
33280;BME280;20403;43.114;12.434;2023-02-13T04:54:43;100966.44;;;2.68;100.00
33280;BME280;20403;43.114;12.434;2023-02-13T04:57:09;100963.66;;;2.71;100.00
33280;BME280;20403;43.114;12.434;2023-02-13T04:59:34;100965.16;;;2.73;100.00
33280;BME280;20403;43.114;12.434;2023-02-13T05:02:00;100967.03;;;2.71;100.00
33280;BME280;20403;43.114;12.434;2023-02-13T05:04:25;100970.75;;;2.79;100.00
33280;BME280;20403;43.114;12.434;2023-02-13T05:06:51;100962.94;;;2.69;100.00
33280;BME280;20403;43.114;12.434;2023-02-13T05:09:16;100970.66;;;2.69;100.00
33280;BME280;20403;43.114;12.434;2023-02-13T05:11:42;100970.34;;;2.62;100.00
33280;BME280;20403;43.114;12.434;2023-02-13T05:14:09;100971.22;;;2.72;100.00
33280;BME280;20403;43.114;12.434;2023-02-13T05:16:34;100968.47;;;2.64;100.00
33280;BME280;20403;43.114;12.434;2023-02-13T05:19:00;100971.47;;;2.69;100.00
33280;BME280;20403;43.114;12.434;2023-02-13T05:21:25;100975.91;;;2.46;100.00
33280;BME280;20403;43.114;12.434;2023-02-13T05:24:09;100981.13;;;2.56;100.00
33280;BME280;20403;43.114;12.434;2023-02-13T05:26:34;100975.97;;;2.56;100.00
33280;BME280;20403;43.114;12.434;2023-02-13T05:29:00;100981.03;;;2.58;100.00
33280;BME280;20403;43.114;12.434;2023-02-13T05:31:47;100978.59;;;2.45;100.00
33280;BME280;20403;43.114;12.434;2023-02-13T05:34:13;100977.63;;;2.57;100.00
33280;BME280;20403;43.114;12.434;2023-02-13T05:36:39;100981.16;;;2.45;100.00
33280;BME280;20403;43.114;12.434;2023-02-13T05:39:05;100983.88;;;2.43;100.00
33280;BME280;20403;43.114;12.434;2023-02-13T05:41:30;100982.72;;;2.47;100.00
33280;BME280;20403;43.114;12.434;2023-02-13T05:43:56;100979.78;;;2.41;100.00
33280;BME280;20403;43.114;12.434;2023-02-13T05:46:21;100987.19;;;2.34;100.00
33280;BME280;20403;43.114;12.434;2023-02-13T05:48:46;100991.03;;;2.28;100.00
33280;BME280;20403;43.114;12.434;2023-02-13T05:51:12;100985.53;;;2.33;100.00
33280;BME280;20403;43.114;12.434;2023-02-13T05:53:37;100983.53;;;2.37;100.00
33280;BME280;20403;43.114;12.434;2023-02-13T05:56:04;100983.63;;;2.46;100.00
33280;BME280;20403;43.114;12.434;2023-02-13T05:58:30;100992.31;;;2.45;100.00
33280;BME280;20403;43.114;12.434;2023-02-13T06:00:56;100979.91;;;2.39;100.00
33280;BME280;20403;43.114;12.434;2023-02-13T06:03:26;100995.72;;;2.35;100.00
33280;BME280;20403;43.114;12.434;2023-02-13T06:05:53;101002.28;;;2.27;100.00
33280;BME280;20403;43.114;12.434;2023-02-13T06:08:20;101000.75;;;2.36;100.00
33280;BME280;20403;43.114;12.434;2023-02-13T06:10:46;100999.81;;;2.37;100.00
33280;BME280;20403;43.114;12.434;2023-02-13T06:13:12;101001.31;;;2.40;100.00
33280;BME280;20403;43.114;12.434;2023-02-13T06:15:38;101014.06;;;2.41;100.00
33280;BME280;20403;43.114;12.434;2023-02-13T06:18:04;101006.28;;;2.20;100.00
33280;BME280;20403;43.114;12.434;2023-02-13T06:20:29;101006.00;;;2.35;100.00
33280;BME280;20403;43.114;12.434;2023-02-13T06:22:55;101011.19;;;2.23;100.00
33280;BME280;20403;43.114;12.434;2023-02-13T06:25:20;101025.47;;;2.27;100.00
33280;BME280;20403;43.114;12.434;2023-02-13T06:27:46;101019.16;;;2.20;100.00
33280;BME280;20403;43.114;12.434;2023-02-13T06:30:12;101023.34;;;2.21;100.00
33280;BME280;20403;43.114;12.434;2023-02-13T06:32:38;101019.59;;;2.25;100.00
33280;BME280;20403;43.114;12.434;2023-02-13T06:35:03;101021.00;;;2.29;100.00
33280;BME280;20403;43.114;12.434;2023-02-13T06:37:29;101028.72;;;2.41;100.00
33280;BME280;20403;43.114;12.434;2023-02-13T06:39:54;101044.75;;;2.33;100.00
33280;BME280;20403;43.114;12.434;2023-02-13T06:42:20;101043.31;;;2.40;100.00
33280;BME280;20403;43.114;12.434;2023-02-13T06:44:46;101050.56;;;2.46;100.00
33280;BME280;20403;43.114;12.434;2023-02-13T06:47:11;101039.00;;;2.41;100.00
33280;BME280;20403;43.114;12.434;2023-02-13T06:49:36;101030.91;;;2.57;100.00
33280;BME280;20403;43.114;12.434;2023-02-13T06:52:02;101036.88;;;2.46;100.00
33280;BME280;20403;43.114;12.434;2023-02-13T06:54:27;101026.47;;;2.47;100.00
33280;BME280;20403;43.114;12.434;2023-02-13T06:56:53;101025.38;;;2.61;100.00
33280;BME280;20403;43.114;12.434;2023-02-13T06:59:18;101025.69;;;2.68;100.00
33280;BME280;20403;43.114;12.434;2023-02-13T07:01:44;101030.75;;;2.90;100.00
33280;BME280;20403;43.114;12.434;2023-02-13T07:04:09;101031.34;;;3.15;100.00
33280;BME280;20403;43.114;12.434;2023-02-13T07:06:34;101042.41;;;3.06;100.00
33280;BME280;20403;43.114;12.434;2023-02-13T07:09:03;101044.03;;;3.28;100.00
33280;BME280;20403;43.114;12.434;2023-02-13T07:11:28;101042.16;;;3.51;100.00
33280;BME280;20403;43.114;12.434;2023-02-13T07:13:54;101044.31;;;3.76;100.00
33280;BME280;20403;43.114;12.434;2023-02-13T07:16:20;101036.34;;;3.89;100.00
33280;BME280;20403;43.114;12.434;2023-02-13T07:18:45;101040.78;;;4.18;100.00
33280;BME280;20403;43.114;12.434;2023-02-13T07:21:10;101049.41;;;4.28;100.00
33280;BME280;20403;43.114;12.434;2023-02-13T07:23:36;101047.94;;;4.55;100.00
33280;BME280;20403;43.114;12.434;2023-02-13T07:26:01;101039.25;;;4.85;100.00
33280;BME280;20403;43.114;12.434;2023-02-13T07:28:27;101046.75;;;4.98;100.00
33280;BME280;20403;43.114;12.434;2023-02-13T07:30:54;101055.72;;;5.13;100.00
33280;BME280;20403;43.114;12.434;2023-02-13T07:33:19;101039.03;;;5.45;100.00
33280;BME280;20403;43.114;12.434;2023-02-13T07:35:49;101041.78;;;6.18;100.00
33280;BME280;20403;43.114;12.434;2023-02-13T07:38:16;101040.47;;;7.22;100.00
33280;BME280;20403;43.114;12.434;2023-02-13T07:40:41;101042.50;;;7.88;100.00
33280;BME280;20403;43.114;12.434;2023-02-13T07:43:07;101042.94;;;8.26;100.00
33280;BME280;20403;43.114;12.434;2023-02-13T07:45:33;101042.56;;;8.55;100.00
33280;BME280;20403;43.114;12.434;2023-02-13T07:47:58;101046.81;;;8.81;100.00
33280;BME280;20403;43.114;12.434;2023-02-13T07:50:27;101046.47;;;8.84;100.00
33280;BME280;20403;43.114;12.434;2023-02-13T07:52:57;101050.72;;;8.77;100.00
33280;BME280;20403;43.114;12.434;2023-02-13T07:55:23;101055.44;;;8.81;100.00
33280;BME280;20403;43.114;12.434;2023-02-13T07:57:49;101067.97;;;8.94;100.00
33280;BME280;20403;43.114;12.434;2023-02-13T08:00:15;101061.75;;;8.87;100.00
33280;BME280;20403;43.114;12.434;2023-02-13T08:02:41;101060.13;;;8.78;100.00
33280;BME280;20403;43.114;12.434;2023-02-13T08:05:07;101066.66;;;8.74;100.00
33280;BME280;20403;43.114;12.434;2023-02-13T08:07:33;101057.53;;;8.78;100.00
33280;BME280;20403;43.114;12.434;2023-02-13T08:09:58;101065.66;;;8.91;100.00
33280;BME280;20403;43.114;12.434;2023-02-13T08:12:42;101072.44;;;8.51;100.00
33280;BME280;20403;43.114;12.434;2023-02-13T08:15:12;101068.94;;;8.85;100.00
33280;BME280;20403;43.114;12.434;2023-02-13T08:17:37;101071.69;;;9.00;100.00
33280;BME280;20403;43.114;12.434;2023-02-13T08:20:04;101070.72;;;9.34;100.00
33280;BME280;20403;43.114;12.434;2023-02-13T08:22:31;101073.44;;;9.49;100.00
33280;BME280;20403;43.114;12.434;2023-02-13T08:24:57;101071.19;;;9.45;100.00
33280;BME280;20403;43.114;12.434;2023-02-13T08:27:22;101079.00;;;9.45;100.00
33280;BME280;20403;43.114;12.434;2023-02-13T08:29:48;101072.47;;;9.58;100.00
33280;BME280;20403;43.114;12.434;2023-02-13T08:32:15;101077.66;;;9.50;100.00
33280;BME280;20403;43.114;12.434;2023-02-13T08:34:41;101077.78;;;9.81;100.00
33280;BME280;20403;43.114;12.434;2023-02-13T08:37:06;101086.31;;;10.06;100.00
33280;BME280;20403;43.114;12.434;2023-02-13T08:39:31;101089.00;;;9.89;98.95
33280;BME280;20403;43.114;12.434;2023-02-13T08:41:57;101080.53;;;9.79;94.58
33280;BME280;20403;43.114;12.434;2023-02-13T08:44:22;101084.72;;;9.97;99.81
33280;BME280;20403;43.114;12.434;2023-02-13T08:46:47;101085.03;;;10.10;98.91
33280;BME280;20403;43.114;12.434;2023-02-13T08:49:13;101091.88;;;10.03;95.34
33280;BME280;20403;43.114;12.434;2023-02-13T08:51:38;101086.56;;;10.36;97.57
33280;BME280;20403;43.114;12.434;2023-02-13T08:54:04;101084.72;;;10.67;89.26
33280;BME280;20403;43.114;12.434;2023-02-13T08:56:29;101092.56;;;10.67;85.34
33280;BME280;20403;43.114;12.434;2023-02-13T08:58:55;101084.00;;;10.19;87.56
33280;BME280;20403;43.114;12.434;2023-02-13T09:01:20;101086.97;;;10.08;93.31
33280;BME280;20403;43.114;12.434;2023-02-13T09:03:48;101083.31;;;10.34;98.47
33280;BME280;20403;43.114;12.434;2023-02-13T09:06:13;101077.59;;;10.30;94.50
33280;BME280;20403;43.114;12.434;2023-02-13T09:08:39;101085.75;;;10.35;96.85
33280;BME280;20403;43.114;12.434;2023-02-13T09:11:04;101081.28;;;10.44;92.53
33280;BME280;20403;43.114;12.434;2023-02-13T09:13:32;101085.19;;;10.48;96.61
33280;BME280;20403;43.114;12.434;2023-02-13T09:16:00;101080.66;;;10.65;95.64
33280;BME280;20403;43.114;12.434;2023-02-13T09:18:26;101081.16;;;10.91;88.00
33280;BME280;20403;43.114;12.434;2023-02-13T09:21:04;101074.53;;;10.58;86.76
33280;BME280;20403;43.114;12.434;2023-02-13T09:23:35;101074.81;;;10.63;91.92
33280;BME280;20403;43.114;12.434;2023-02-13T09:26:04;101078.03;;;10.96;89.02
33280;BME280;20403;43.114;12.434;2023-02-13T09:28:31;101064.72;;;11.44;89.76
33280;BME280;20403;43.114;12.434;2023-02-13T09:30:57;101060.56;;;11.34;87.99
33280;BME280;20403;43.114;12.434;2023-02-13T09:33:24;101070.59;;;11.61;81.80
33280;BME280;20403;43.114;12.434;2023-02-13T09:35:49;101065.25;;;11.39;83.95
33280;BME280;20403;43.114;12.434;2023-02-13T09:38:15;101062.22;;;11.65;81.50
33280;BME280;20403;43.114;12.434;2023-02-13T09:40:42;101054.63;;;11.85;82.61
33280;BME280;20403;43.114;12.434;2023-02-13T09:43:14;101062.66;;;11.98;76.00
33280;BME280;20403;43.114;12.434;2023-02-13T09:45:41;101065.63;;;12.10;78.34
33280;BME280;20403;43.114;12.434;2023-02-13T09:48:17;101066.41;;;12.83;77.83
33280;BME280;20403;43.114;12.434;2023-02-13T09:50:47;101062.84;;;12.91;67.93
33280;BME280;20403;43.114;12.434;2023-02-13T09:53:20;101060.66;;;12.52;67.67
33280;BME280;20403;43.114;12.434;2023-02-13T09:55:53;101058.94;;;12.23;75.25
33280;BME280;20403;43.114;12.434;2023-02-13T09:58:38;101052.44;;;12.55;73.27
33280;BME280;20403;43.114;12.434;2023-02-13T10:01:18;101058.44;;;12.92;71.83
33280;BME280;20403;43.114;12.434;2023-02-13T10:06:29;101060.63;;;13.38;67.26
33280;BME280;20403;43.114;12.434;2023-02-13T10:11:34;101056.47;;;13.50;66.16
33280;BME280;20403;43.114;12.434;2023-02-13T10:16:57;101049.53;;;13.71;62.44
33280;BME280;20403;43.114;12.434;2023-02-13T10:19:39;101042.13;;;13.87;63.69
33280;BME280;20403;43.114;12.434;2023-02-13T10:22:14;101048.09;;;13.68;64.44
33280;BME280;20403;43.114;12.434;2023-02-13T10:24:49;101047.63;;;13.99;64.24
33280;BME280;20403;43.114;12.434;2023-02-13T10:27:30;101041.97;;;13.96;61.78
33280;BME280;20403;43.114;12.434;2023-02-13T10:30:07;101038.50;;;13.82;61.57
33280;BME280;20403;43.114;12.434;2023-02-13T10:33:09;101037.84;;;14.41;62.35
33280;BME280;20403;43.114;12.434;2023-02-13T10:38:23;101046.91;;;14.25;100.00
33280;BME280;20403;43.114;12.434;2023-02-13T10:41:20;101036.84;;;13.39;100.00
33280;BME280;20403;43.114;12.434;2023-02-13T10:44:00;101033.69;;;13.22;100.00
33280;BME280;20403;43.114;12.434;2023-02-13T10:46:32;101037.50;;;13.48;100.00
33280;BME280;20403;43.114;12.434;2023-02-13T10:51:52;101028.78;;;14.31;96.63
33280;BME280;20403;43.114;12.434;2023-02-13T11:02:30;101015.91;;;14.69;65.71
33280;BME280;20403;43.114;12.434;2023-02-13T11:05:36;101008.84;;;14.76;62.65
33280;BME280;20403;43.114;12.434;2023-02-13T11:07:51;101003.13;;;14.46;64.32
33280;BME280;20403;43.114;12.434;2023-02-13T11:10:22;101013.91;;;14.64;63.31
33280;BME280;20403;43.114;12.434;2023-02-13T11:12:48;101000.38;;;14.87;61.08
33280;BME280;20403;43.114;12.434;2023-02-13T11:15:28;100994.50;;;14.79;59.39
33280;BME280;20403;43.114;12.434;2023-02-13T11:17:56;100999.94;;;14.97;60.29
33280;BME280;20403;43.114;12.434;2023-02-13T11:20:31;100996.31;;;14.91;57.72
33280;BME280;20403;43.114;12.434;2023-02-13T11:23:16;100988.03;;;15.08;57.67
33280;BME280;20403;43.114;12.434;2023-02-13T11:28:31;100992.66;;;15.19;54.32
33280;BME280;20403;43.114;12.434;2023-02-13T11:31:31;100979.78;;;15.63;54.29
33280;BME280;20403;43.114;12.434;2023-02-13T11:33:59;100976.88;;;15.32;53.04
33280;BME280;20403;43.114;12.434;2023-02-13T11:36:32;100978.78;;;15.57;51.90
33280;BME280;20403;43.114;12.434;2023-02-13T11:39:00;100975.00;;;15.46;51.48
33280;BME280;20403;43.114;12.434;2023-02-13T11:41:27;100964.25;;;15.54;50.34
33280;BME280;20403;43.114;12.434;2023-02-13T11:43:55;100962.03;;;15.96;50.96
33280;BME280;20403;43.114;12.434;2023-02-13T11:46:45;100972.72;;;16.40;53.00
33280;BME280;20403;43.114;12.434;2023-02-13T11:49:23;100957.66;;;16.97;50.83
33280;BME280;20403;43.114;12.434;2023-02-13T11:51:57;100957.66;;;16.97;47.53
33280;BME280;20403;43.114;12.434;2023-02-13T11:56:51;100946.94;;;16.49;48.52
33280;BME280;20403;43.114;12.434;2023-02-13T11:59:21;100945.38;;;16.66;48.51
33280;BME280;20403;43.114;12.434;2023-02-13T12:02:00;100936.97;;;17.19;48.33
33280;BME280;20403;43.114;12.434;2023-02-13T12:04:26;100935.94;;;17.39;44.20
33280;BME280;20403;43.114;12.434;2023-02-13T12:07:03;100931.97;;;17.48;45.08
33280;BME280;20403;43.114;12.434;2023-02-13T12:09:29;100931.84;;;17.73;43.51
33280;BME280;20403;43.114;12.434;2023-02-13T12:11:57;100925.03;;;17.35;42.09
33280;BME280;20403;43.114;12.434;2023-02-13T12:14:30;100919.47;;;17.07;41.91
33280;BME280;20403;43.114;12.434;2023-02-13T12:17:11;100921.19;;;17.50;44.15
33280;BME280;20403;43.114;12.434;2023-02-13T12:19:42;100918.56;;;17.80;44.34
33280;BME280;20403;43.114;12.434;2023-02-13T12:39:34;100895.56;;;17.38;42.07
33280;BME280;20403;43.114;12.434;2023-02-13T12:47:28;100893.75;;;17.69;42.05
33280;BME280;20403;43.114;12.434;2023-02-13T12:53:06;100888.63;;;17.56;41.26
33280;BME280;20403;43.114;12.434;2023-02-13T13:07:35;100873.28;;;17.83;40.42
33280;BME280;20403;43.114;12.434;2023-02-13T13:18:36;100871.88;;;17.80;38.67
33280;BME280;20403;43.114;12.434;2023-02-13T13:26:55;100870.56;;;18.01;39.83
33280;BME280;20403;43.114;12.434;2023-02-13T13:29:25;100858.84;;;18.09;38.43
33280;BME280;20403;43.114;12.434;2023-02-13T13:32:01;100858.25;;;17.95;37.75
33280;BME280;20403;43.114;12.434;2023-02-13T13:34:29;100859.63;;;17.56;37.64
33280;BME280;20403;43.114;12.434;2023-02-13T13:37:04;100854.25;;;17.32;37.70
33280;BME280;20403;43.114;12.434;2023-02-13T13:39:38;100859.03;;;17.23;39.52
33280;BME280;20403;43.114;12.434;2023-02-13T13:42:14;100853.84;;;17.35;39.88
33280;BME280;20403;43.114;12.434;2023-02-13T13:50:29;100852.97;;;17.53;38.38
33280;BME280;20403;43.114;12.434;2023-02-13T13:56:01;100854.34;;;17.26;39.22
33280;BME280;20403;43.114;12.434;2023-02-13T13:58:46;100855.31;;;17.13;39.25
33280;BME280;20403;43.114;12.434;2023-02-13T14:14:51;100859.16;;;16.98;39.33
33280;BME280;20403;43.114;12.434;2023-02-13T14:22:54;100858.56;;;16.53;40.70
33280;BME280;20403;43.114;12.434;2023-02-13T14:25:24;100861.81;;;16.55;40.70
33280;BME280;20403;43.114;12.434;2023-02-13T14:28:02;100858.50;;;16.41;41.37
33280;BME280;20403;43.114;12.434;2023-02-13T14:30:31;100866.50;;;16.28;41.47
33280;BME280;20403;43.114;12.434;2023-02-13T14:33:06;100859.69;;;16.20;41.17
33280;BME280;20403;43.114;12.434;2023-02-13T14:35:34;100856.13;;;16.08;42.14
33280;BME280;20403;43.114;12.434;2023-02-13T14:38:04;100850.38;;;16.17;42.55
33280;BME280;20403;43.114;12.434;2023-02-13T14:43:36;100858.84;;;16.20;42.03
33280;BME280;20403;43.114;12.434;2023-02-13T14:48:36;100853.38;;;15.96;42.10
33280;BME280;20403;43.114;12.434;2023-02-13T14:51:04;100853.22;;;15.91;42.44
33280;BME280;20403;43.114;12.434;2023-02-13T14:53:46;100845.53;;;15.89;43.56
33280;BME280;20403;43.114;12.434;2023-02-13T14:56:16;100849.50;;;15.67;43.52
33280;BME280;20403;43.114;12.434;2023-02-13T14:59:09;100841.94;;;15.39;42.62
33280;BME280;20403;43.114;12.434;2023-02-13T15:01:44;100851.94;;;15.23;43.40
33280;BME280;20403;43.114;12.434;2023-02-13T15:04:34;100854.47;;;14.98;43.98
33280;BME280;20403;43.114;12.434;2023-02-13T15:07:06;100842.41;;;14.84;44.30
33280;BME280;20403;43.114;12.434;2023-02-13T15:09:38;100852.75;;;14.59;45.51
33280;BME280;20403;43.114;12.434;2023-02-13T15:12:31;100846.06;;;14.63;45.42
33280;BME280;20403;43.114;12.434;2023-02-13T15:14:58;100856.59;;;14.63;46.28
33280;BME280;20403;43.114;12.434;2023-02-13T15:17:31;100851.94;;;14.45;46.33
33280;BME280;20403;43.114;12.434;2023-02-13T15:22:39;100851.72;;;14.33;47.78
33280;BME280;20403;43.114;12.434;2023-02-13T15:25:23;100851.72;;;14.26;47.32
33280;BME280;20403;43.114;12.434;2023-02-13T15:27:51;100852.94;;;14.11;47.95
33280;BME280;20403;43.114;12.434;2023-02-13T15:30:28;100854.34;;;14.13;48.02